createdAt,value
2023-03-07T00:02:22.466Z,100.90
2023-03-07T00:05:00.335Z,101.03
2023-03-07T00:07:30.310Z,101.22
2023-03-07T00:10:00.976Z,105.65
2023-03-07T00:12:30.969Z,103.40
2023-03-07T00:15:00.761Z,110.47
2023-03-07T00:17:30.726Z,106.40
2023-03-07T00:20:00.595Z,105.03
2023-03-07T00:22:30.438Z,108.55
2023-03-07T00:25:00.448Z,106.85
2023-03-07T00:27:33.141Z,110.07
2023-03-07T00:30:04.379Z,101.70
2023-03-07T00:32:35.235Z,108.95
2023-03-07T00:35:05.291Z,105.70
2023-03-07T00:37:35.192Z,104.50
2023-03-07T00:40:05.998Z,105.20
2023-03-07T00:42:36.030Z,107.28
2023-03-07T00:45:06.252Z,109.03
2023-03-07T00:47:36.330Z,107.40
2023-03-07T00:50:06.577Z,104.03
2023-03-07T00:52:36.851Z,105.68
2023-03-07T00:55:07.807Z,103.57
2023-03-07T00:57:38.061Z,105.60
2023-03-07T01:00:08.616Z,99.35
2023-03-07T01:02:38.731Z,104.75
2023-03-07T01:05:09.216Z,103.95
2023-03-07T01:07:39.332Z,105.63
2023-03-07T01:10:09.607Z,103.47
2023-03-07T01:12:39.650Z,102.65
2023-03-07T01:15:10.168Z,101.95
2023-03-07T01:17:41.137Z,105.15
2023-03-07T01:20:11.904Z,102.75
2023-03-07T01:22:42.175Z,103.40
2023-03-07T01:25:12.586Z,105.03
2023-03-07T01:27:43.691Z,102.55
2023-03-07T01:30:14.432Z,101.27
2023-03-07T01:32:44.598Z,101.10
2023-03-07T01:35:14.823Z,99.72
2023-03-07T01:37:44.988Z,101.05
2023-03-07T01:43:25.456Z,100.55
2023-03-07T01:46:19.838Z,101.68
2023-03-07T01:48:58.523Z,105.10
2023-03-07T01:51:55.852Z,106.85
2023-03-07T01:54:28.057Z,108.68
2023-03-07T01:56:58.700Z,107.22
2023-03-07T01:59:35.191Z,101.90
2023-03-07T02:05:35.292Z,104.65
2023-03-07T02:08:06.600Z,101.53
2023-03-07T02:10:39.194Z,102.40
2023-03-07T02:13:09.831Z,99.65
2023-03-07T02:15:40.747Z,98.63
2023-03-07T02:18:12.536Z,101.85
2023-03-07T02:21:04.765Z,99.85
2023-03-07T02:24:07.564Z,101.70
2023-03-07T02:26:47.804Z,98.22
2023-03-07T02:29:18.510Z,97.85
2023-03-07T02:32:06.700Z,92.50
2023-03-07T02:34:37.209Z,90.22
2023-03-07T02:40:21.528Z,91.68
2023-03-07T02:43:11.755Z,91.60
2023-03-07T02:45:59.891Z,89.35
2023-03-07T02:48:48.564Z,84.95
2023-03-07T02:51:36.631Z,85.28
2023-03-07T02:54:07.133Z,84.25
2023-03-07T02:56:37.333Z,82.35
2023-03-07T02:59:07.662Z,81.72
2023-03-07T03:01:37.847Z,81.45
2023-03-07T03:04:26.268Z,77.38
2023-03-07T03:06:56.470Z,79.55
2023-03-07T03:09:26.796Z,78.63
2023-03-07T03:11:57.103Z,74.18
2023-03-07T03:14:29.615Z,77.20
2023-03-07T03:17:18.829Z,75.75
2023-03-07T03:19:49.014Z,76.13
2023-03-07T03:25:07.406Z,73.75
2023-03-07T03:27:37.816Z,74.75
2023-03-07T03:30:26.289Z,74.25
2023-03-07T03:33:14.776Z,71.47
2023-03-07T03:36:09.788Z,69.63
2023-03-07T03:38:41.377Z,72.55
2023-03-07T03:41:20.397Z,72.55
2023-03-07T03:44:08.809Z,71.85
2023-03-07T03:46:39.799Z,67.00
2023-03-07T03:49:28.226Z,67.68
2023-03-07T03:52:16.575Z,68.93
2023-03-07T03:54:46.662Z,69.78
2023-03-07T03:57:20.002Z,67.57
2023-03-07T04:00:10.939Z,66.68
2023-03-07T04:02:59.625Z,66.75
2023-03-07T04:08:16.862Z,62.83
2023-03-07T04:10:47.571Z,62.38
2023-03-07T04:13:37.003Z,63.05
2023-03-07T04:16:25.714Z,62.42
2023-03-07T04:18:56.479Z,61.30
2023-03-07T04:24:12.658Z,59.60
2023-03-07T04:27:01.060Z,60.78
2023-03-07T04:29:32.999Z,59.80
2023-03-07T04:32:14.848Z,59.08
2023-03-07T04:34:44.948Z,57.50
2023-03-07T04:37:14.830Z,60.60
2023-03-07T04:40:02.870Z,58.45
2023-03-07T04:42:32.975Z,59.50
2023-03-07T04:45:04.809Z,57.03
2023-03-07T04:47:35.089Z,56.45
2023-03-07T04:50:23.324Z,58.72
2023-03-07T04:53:11.613Z,57.50
2023-03-07T04:55:42.100Z,54.80
2023-03-07T04:58:15.138Z,56.63
2023-03-07T05:01:04.986Z,56.30
2023-03-07T05:03:53.185Z,55.53
2023-03-07T05:09:11.501Z,57.42
2023-03-07T05:15:03.655Z,56.28
2023-03-07T05:17:52.124Z,56.22
2023-03-07T05:20:40.246Z,55.55
2023-03-07T05:23:10.236Z,55.13
2023-03-07T05:25:41.538Z,53.90
2023-03-07T05:28:13.003Z,51.95
2023-03-07T05:30:43.781Z,55.05
2023-03-07T05:33:14.118Z,54.45
2023-03-07T05:36:03.670Z,53.85
2023-03-07T05:38:35.468Z,53.83
2023-03-07T05:41:05.729Z,53.33
2023-03-07T05:43:35.923Z,53.75
2023-03-07T05:46:05.840Z,54.05
2023-03-07T05:48:36.212Z,53.92
2023-03-07T05:51:25.478Z,54.58
2023-03-07T05:54:13.502Z,53.28
2023-03-07T05:57:02.642Z,53.70
2023-03-07T05:59:32.825Z,53.35
2023-03-07T06:02:03.227Z,54.35
2023-03-07T06:07:18.785Z,53.78
2023-03-07T06:09:49.576Z,52.05
2023-03-07T06:15:06.477Z,55.15
2023-03-07T06:17:38.240Z,53.40
2023-03-07T06:20:09.888Z,55.08
2023-03-07T06:22:58.557Z,55.60
2023-03-07T06:28:14.573Z,54.88
2023-03-07T06:30:44.628Z,54.35
2023-03-07T06:33:15.220Z,55.78
2023-03-07T06:36:08.741Z,54.50
2023-03-07T06:38:40.918Z,55.33
2023-03-07T06:41:11.356Z,55.13
2023-03-07T06:44:00.994Z,54.78
2023-03-07T06:46:34.543Z,53.63
2023-03-07T06:49:22.739Z,53.65
2023-03-07T06:52:11.136Z,57.53
2023-03-07T06:54:41.081Z,56.03
2023-03-07T06:57:29.482Z,55.00
2023-03-07T07:00:00.008Z,57.17
2023-03-07T07:08:03.984Z,57.58
2023-03-07T07:10:34.157Z,56.83
2023-03-07T07:13:04.715Z,57.75
2023-03-07T07:18:05.609Z,56.83
2023-03-07T07:20:37.011Z,57.53
2023-03-07T07:23:07.225Z,56.58
2023-03-07T07:25:37.485Z,56.20
2023-03-07T07:28:07.793Z,56.42
2023-03-07T07:30:38.199Z,58.43
2023-03-07T07:33:08.764Z,57.70
2023-03-07T07:35:39.335Z,55.35
2023-03-07T07:38:27.434Z,55.55
2023-03-07T07:40:58.448Z,56.40
2023-03-07T07:46:21.657Z,57.42
2023-03-07T07:48:51.943Z,56.85
2023-03-07T07:51:22.057Z,58.03
2023-03-07T07:53:52.822Z,57.42
2023-03-07T07:56:23.446Z,56.03
2023-03-07T07:59:11.940Z,56.17
2023-03-07T08:01:42.112Z,57.20
2023-03-07T08:07:16.738Z,57.25
2023-03-07T08:10:05.270Z,56.58
2023-03-07T08:12:53.852Z,57.33
2023-03-07T08:15:42.958Z,56.92
2023-03-07T08:18:13.651Z,56.22
2023-03-07T08:21:02.360Z,55.83
2023-03-07T08:23:32.646Z,53.97
2023-03-07T08:26:08.193Z,57.10
2023-03-07T08:28:40.004Z,56.20
2023-03-07T08:34:25.251Z,58.28
2023-03-07T08:37:13.501Z,58.60
2023-03-07T08:39:43.953Z,57.30
2023-03-07T08:42:15.406Z,55.63
2023-03-07T08:44:45.534Z,57.08
2023-03-07T08:47:15.614Z,56.50
2023-03-07T08:49:45.527Z,57.30
2023-03-07T08:52:15.512Z,56.15
2023-03-07T08:54:45.314Z,55.65
2023-03-07T08:57:15.162Z,56.85
2023-03-07T08:59:46.100Z,56.15
2023-03-07T09:02:34.410Z,55.53
2023-03-07T09:05:04.631Z,55.67
2023-03-07T09:07:34.762Z,57.50
2023-03-07T09:10:04.862Z,55.70
2023-03-07T09:12:36.196Z,55.28
2023-03-07T09:15:06.421Z,57.20
2023-03-07T09:17:36.520Z,55.65
2023-03-07T09:20:08.101Z,54.70
2023-03-07T09:22:38.243Z,56.38
2023-03-07T09:25:08.681Z,56.25
2023-03-07T09:27:38.979Z,55.30
2023-03-07T09:30:10.177Z,57.28
2023-03-07T09:35:11.177Z,55.92
2023-03-07T09:37:41.220Z,54.20
2023-03-07T09:40:19.543Z,55.47
2023-03-07T09:43:24.109Z,55.22
2023-03-07T09:46:44.221Z,54.85
2023-03-07T09:49:43.013Z,55.38
2023-03-07T09:52:20.535Z,54.00
2023-03-07T09:55:02.277Z,54.78
2023-03-07T09:57:42.997Z,54.85
2023-03-07T10:00:24.009Z,55.53
2023-03-07T10:03:41.290Z,55.28
2023-03-07T10:06:41.673Z,54.63
2023-03-07T10:09:27.130Z,54.40
2023-03-07T10:12:28.221Z,55.92
2023-03-07T10:15:05.776Z,53.17
2023-03-07T10:18:02.721Z,53.55
2023-03-07T10:20:44.690Z,55.38
2023-03-07T10:23:26.489Z,54.70
2023-03-07T10:26:05.360Z,55.60
2023-03-07T10:28:42.263Z,55.08
2023-03-07T10:31:41.628Z,56.60
2023-03-07T10:34:32.776Z,54.83
2023-03-07T10:37:14.563Z,55.40
2023-03-07T10:39:54.619Z,54.20
2023-03-07T10:42:27.311Z,52.70
2023-03-07T10:44:57.668Z,53.35
2023-03-07T10:47:30.248Z,54.17
2023-03-07T10:50:09.452Z,52.75
2023-03-07T10:52:49.820Z,53.17
2023-03-07T10:55:43.533Z,50.90
2023-03-07T10:58:25.160Z,53.55
2023-03-07T11:01:09.021Z,55.53
2023-03-07T11:04:05.010Z,55.40
2023-03-07T11:06:39.370Z,54.78
2023-03-07T11:09:17.266Z,53.15
2023-03-07T11:12:09.100Z,54.55
2023-03-07T11:15:20.538Z,52.10
2023-03-07T11:17:52.940Z,50.70
2023-03-07T11:20:31.740Z,54.83
2023-03-07T11:23:21.498Z,53.58
2023-03-07T11:25:52.521Z,54.30
2023-03-07T11:28:25.425Z,54.08
2023-03-07T11:31:02.680Z,54.17
2023-03-07T11:33:59.214Z,52.55
2023-03-07T11:36:39.293Z,52.70
2023-03-07T11:39:18.462Z,53.85
2023-03-07T11:41:54.580Z,55.22
2023-03-07T11:44:27.989Z,54.88
2023-03-07T11:47:24.887Z,52.20
2023-03-07T11:50:19.969Z,53.95
2023-03-07T11:52:59.093Z,54.78
2023-03-07T11:55:37.742Z,53.63
2023-03-07T11:58:25.755Z,53.83
2023-03-07T12:01:01.993Z,53.95
2023-03-07T12:03:54.445Z,53.88
2023-03-07T12:07:01.517Z,53.90
2023-03-07T12:09:54.474Z,52.72
2023-03-07T12:12:43.806Z,52.00
2023-03-07T12:15:36.779Z,54.95
2023-03-07T12:18:40.007Z,54.35
2023-03-07T12:21:30.735Z,54.10
2023-03-07T12:24:31.659Z,54.77
2023-03-07T12:27:26.789Z,54.00
2023-03-07T12:30:03.581Z,54.47
2023-03-07T12:32:37.851Z,55.00
2023-03-07T12:35:41.819Z,55.47
2023-03-07T12:39:13.257Z,55.47
2023-03-07T12:41:55.475Z,54.30
2023-03-07T12:44:51.248Z,54.97
2023-03-07T12:47:52.911Z,55.40
2023-03-07T12:50:39.968Z,55.38
2023-03-07T12:53:25.656Z,53.00
2023-03-07T12:56:09.173Z,57.65
2023-03-07T12:59:04.615Z,57.03
2023-03-07T13:01:57.986Z,59.50
2023-03-07T13:04:40.176Z,57.53
2023-03-07T13:07:27.393Z,61.20
2023-03-07T13:10:01.205Z,59.90
2023-03-07T13:12:31.830Z,60.63
2023-03-07T13:15:09.540Z,57.77
2023-03-07T13:17:59.456Z,59.28
2023-03-07T13:20:42.333Z,59.33
2023-03-07T13:23:30.950Z,61.22
2023-03-07T13:26:07.539Z,59.15
2023-03-07T13:28:47.094Z,56.20
2023-03-07T13:31:19.991Z,58.70
2023-03-07T13:33:53.006Z,59.03
2023-03-07T13:37:52.074Z,59.95
2023-03-07T13:40:31.158Z,60.08
2023-03-07T13:43:01.434Z,62.92
2023-03-07T13:45:52.102Z,59.70
2023-03-07T13:51:16.865Z,64.50
2023-03-07T13:53:53.436Z,61.45
2023-03-07T13:56:29.610Z,62.05
2023-03-07T13:59:29.865Z,64.03
2023-03-07T14:02:06.761Z,60.63
2023-03-07T14:04:56.518Z,62.10
2023-03-07T14:07:38.621Z,60.22
2023-03-07T14:10:26.804Z,63.38
2023-03-07T14:13:07.260Z,61.53
2023-03-07T14:15:50.123Z,62.43
2023-03-07T14:18:50.800Z,62.10
2023-03-07T14:21:48.764Z,61.63
2023-03-07T14:24:25.623Z,63.38
2023-03-07T14:27:00.808Z,64.57
2023-03-07T14:29:33.108Z,63.30
2023-03-07T14:32:03.330Z,63.78
2023-03-07T14:34:36.556Z,65.45
2023-03-07T14:37:15.868Z,65.38
2023-03-07T14:40:10.933Z,66.82
2023-03-07T14:42:56.804Z,66.32
2023-03-07T14:45:42.986Z,69.63
2023-03-07T14:48:43.423Z,68.88
2023-03-07T14:51:20.695Z,66.15
2023-03-07T14:53:52.861Z,65.10
2023-03-07T14:56:39.525Z,66.82
2023-03-07T14:59:28.118Z,66.72
2023-03-07T15:02:21.775Z,65.93
2023-03-07T15:04:57.060Z,64.60
2023-03-07T15:07:27.134Z,61.65
2023-03-07T15:09:57.563Z,67.13
2023-03-07T15:12:30.800Z,67.40
2023-03-07T15:15:07.757Z,64.78
2023-03-07T15:17:46.870Z,67.07
2023-03-07T15:20:24.352Z,66.47
2023-03-07T15:23:07.615Z,67.28
2023-03-07T15:25:40.976Z,67.82
2023-03-07T15:28:23.995Z,67.32
2023-03-07T15:30:55.419Z,69.15
2023-03-07T15:36:22.445Z,72.03
2023-03-07T15:38:55.238Z,76.05
2023-03-07T15:41:32.745Z,73.90
2023-03-07T15:44:14.851Z,76.80
2023-03-07T15:47:00.123Z,76.25
2023-03-07T15:49:51.341Z,76.65
2023-03-07T15:52:29.138Z,74.32
2023-03-07T15:55:02.359Z,74.13
2023-03-07T15:57:54.528Z,78.20
2023-03-07T16:00:44.909Z,77.85
2023-03-07T16:03:31.551Z,78.00
2023-03-07T16:06:03.465Z,77.20
2023-03-07T16:08:36.184Z,78.05
2023-03-07T16:11:10.458Z,79.63
2023-03-07T16:13:45.066Z,79.22
2023-03-07T16:16:24.876Z,80.75
2023-03-07T16:18:56.270Z,79.60
2023-03-07T16:21:27.542Z,79.55
2023-03-07T16:23:57.664Z,81.95
2023-03-07T16:26:27.637Z,80.72
2023-03-07T16:28:58.366Z,82.80
2023-03-07T16:31:28.558Z,80.03
2023-03-07T16:33:58.608Z,78.63
2023-03-07T16:36:28.759Z,77.93
2023-03-07T16:38:58.995Z,82.60
2023-03-07T16:41:29.250Z,79.28
2023-03-07T16:44:01.935Z,79.28
2023-03-07T16:46:32.303Z,80.47
2023-03-07T16:49:03.995Z,79.88
2023-03-07T16:51:35.039Z,81.32
2023-03-07T16:54:08.270Z,80.28
2023-03-07T16:56:47.651Z,81.00
2023-03-07T16:59:23.110Z,81.65
2023-03-07T17:01:56.337Z,81.50
2023-03-07T17:07:20.659Z,82.32
2023-03-07T17:09:50.768Z,83.35
2023-03-07T17:12:27.966Z,78.65
2023-03-07T17:15:00.017Z,81.57
2023-03-07T17:17:38.928Z,78.15
2023-03-07T17:20:10.454Z,76.88
2023-03-07T17:22:41.981Z,79.53
2023-03-07T17:25:12.916Z,77.07
2023-03-07T17:28:07.458Z,77.97
2023-03-07T17:30:37.665Z,77.53
2023-03-07T17:33:08.660Z,76.88
2023-03-07T17:35:41.544Z,77.57
2023-03-07T17:38:11.628Z,74.70
2023-03-07T17:40:41.724Z,74.43
2023-03-07T17:43:13.368Z,74.25
2023-03-07T17:45:43.517Z,73.55
2023-03-07T17:48:13.614Z,73.32
2023-03-07T17:50:43.959Z,73.28
2023-03-07T17:53:14.749Z,73.30
2023-03-07T17:55:44.775Z,71.15
2023-03-07T17:58:15.059Z,72.53
2023-03-07T18:00:45.169Z,70.50
2023-03-07T18:03:15.481Z,72.93
2023-03-07T18:05:45.539Z,70.22
2023-03-07T18:08:15.763Z,72.47
2023-03-07T18:10:45.883Z,71.40
2023-03-07T18:13:17.191Z,70.03
2023-03-07T18:15:50.918Z,72.47
2023-03-07T18:18:20.975Z,68.78
2023-03-07T18:21:00.189Z,69.65
2023-03-07T18:23:32.038Z,69.82
2023-03-07T18:26:04.435Z,66.47
2023-03-07T18:28:36.048Z,69.20
2023-03-07T18:31:27.619Z,70.70
2023-03-07T18:33:58.349Z,68.93
2023-03-07T18:36:28.400Z,68.30
2023-03-07T18:38:58.371Z,70.07
2023-03-07T18:41:29.640Z,71.40
2023-03-07T18:44:00.815Z,72.25
2023-03-07T18:49:05.561Z,71.97
2023-03-07T18:51:35.688Z,72.82
2023-03-07T18:54:05.908Z,73.35
2023-03-07T18:56:36.017Z,71.83
2023-03-07T18:59:06.606Z,73.28
2023-03-07T19:01:38.366Z,71.53
2023-03-07T19:04:09.719Z,72.18
2023-03-07T19:09:25.975Z,72.15
2023-03-07T19:11:56.102Z,70.25
2023-03-07T19:14:25.938Z,71.82
2023-03-07T19:16:55.823Z,70.45
2023-03-07T19:19:25.623Z,70.63
2023-03-07T19:21:55.500Z,70.90
2023-03-07T19:24:25.340Z,73.25
2023-03-07T19:26:55.164Z,71.60
2023-03-07T19:29:25.031Z,71.88
2023-03-07T19:31:55.183Z,72.90
2023-03-07T19:34:25.249Z,71.32
2023-03-07T19:36:55.166Z,75.22
2023-03-07T19:39:25.206Z,75.63
2023-03-07T19:41:55.086Z,74.80
2023-03-07T19:44:26.303Z,73.65
2023-03-07T19:49:28.580Z,73.28
2023-03-07T19:51:58.636Z,73.97
2023-03-07T19:54:28.823Z,72.22
2023-03-07T19:56:58.882Z,72.00
2023-03-07T19:59:28.751Z,73.20
2023-03-07T20:01:58.853Z,76.38
2023-03-07T20:04:28.903Z,73.05
2023-03-07T20:06:58.763Z,72.00
2023-03-07T20:09:28.573Z,69.78
2023-03-07T20:11:58.511Z,73.93
2023-03-07T20:14:28.349Z,75.00
2023-03-07T20:16:58.276Z,74.65
2023-03-07T20:19:28.364Z,72.68
2023-03-07T20:21:58.322Z,74.65
2023-03-07T20:24:28.264Z,73.85
2023-03-07T20:26:58.257Z,74.45
2023-03-07T20:29:28.393Z,72.03
2023-03-07T20:31:58.282Z,74.78
2023-03-07T20:34:28.520Z,76.25
2023-03-07T20:36:58.603Z,72.30
2023-03-07T20:39:28.888Z,75.07
2023-03-07T20:41:59.173Z,73.30
2023-03-07T20:44:29.155Z,71.60
2023-03-07T20:46:59.052Z,75.38
2023-03-07T20:49:29.228Z,72.38
2023-03-07T20:51:59.644Z,71.15
2023-03-07T20:54:29.699Z,72.57
2023-03-07T20:56:59.510Z,73.82
2023-03-07T20:59:29.413Z,72.72
2023-03-07T21:01:59.395Z,71.13
2023-03-07T21:04:29.600Z,72.10
2023-03-07T21:06:59.906Z,73.93
2023-03-07T21:09:30.570Z,72.15
2023-03-07T21:12:00.590Z,74.60
2023-03-07T21:14:30.697Z,74.68
2023-03-07T21:17:00.748Z,74.80
2023-03-07T21:19:30.579Z,73.80
2023-03-07T21:22:01.116Z,73.60
2023-03-07T21:24:31.081Z,71.03
2023-03-07T21:27:01.331Z,74.82
2023-03-07T21:29:31.427Z,75.77
2023-03-07T21:32:01.415Z,72.90
2023-03-07T21:34:31.356Z,74.10
2023-03-07T21:37:01.233Z,73.60
2023-03-07T21:39:31.088Z,74.85
2023-03-07T21:42:00.959Z,74.35
2023-03-07T21:44:30.922Z,73.05
2023-03-07T21:47:00.735Z,79.15
2023-03-07T21:49:30.790Z,73.38
2023-03-07T21:52:00.691Z,74.28
2023-03-07T21:54:30.538Z,79.97
2023-03-07T21:57:00.872Z,77.93
2023-03-07T21:59:31.364Z,78.37
2023-03-07T22:02:01.483Z,74.40
2023-03-07T22:04:32.103Z,78.05
2023-03-07T22:07:02.688Z,78.40
2023-03-07T22:09:33.062Z,77.90
2023-03-07T22:12:07.259Z,76.57
2023-03-07T22:14:45.634Z,75.75
2023-03-07T22:17:15.584Z,78.43
2023-03-07T22:19:45.628Z,81.55
2023-03-07T22:22:15.505Z,77.43
2023-03-07T22:24:45.389Z,74.00
2023-03-07T22:27:15.206Z,75.88
2023-03-07T22:32:30.443Z,77.35
2023-03-07T22:35:19.016Z,78.68
2023-03-07T22:37:49.049Z,80.03
2023-03-07T22:40:19.121Z,77.55
2023-03-07T22:42:48.958Z,80.00
2023-03-07T22:45:18.899Z,79.00
2023-03-07T22:47:48.960Z,72.45
2023-03-07T22:50:19.285Z,78.90
2023-03-07T22:52:49.364Z,71.40
2023-03-07T22:59:19.092Z,79.45
2023-03-07T23:01:49.123Z,81.00
2023-03-07T23:04:19.267Z,83.60
2023-03-07T23:06:49.169Z,85.13
2023-03-07T23:09:19.075Z,81.72
2023-03-07T23:11:50.347Z,79.10
2023-03-07T23:14:31.040Z,80.25
2023-03-07T23:17:01.049Z,75.27
2023-03-07T23:19:31.655Z,80.30
2023-03-07T23:22:01.895Z,76.80
2023-03-07T23:24:31.892Z,81.25
2023-03-07T23:27:01.761Z,78.93
2023-03-07T23:29:31.606Z,81.72
2023-03-07T23:32:05.765Z,79.93
2023-03-07T23:34:38.019Z,77.35
2023-03-07T23:37:08.025Z,80.82
2023-03-07T23:39:37.862Z,77.72
2023-03-07T23:42:07.785Z,81.20
2023-03-07T23:44:38.002Z,80.95
2023-03-07T23:47:08.410Z,83.73
2023-03-07T23:49:38.305Z,81.90
2023-03-07T23:52:08.295Z,80.05
2023-03-07T23:54:38.146Z,84.45
2023-03-07T23:57:08.464Z,77.75
2023-03-07T23:59:38.436Z,80.57
